sensor_id;sensor_type;location;lat;lon;timestamp;temperature;humidity
70089;HTU21D;57460;47.134;19.888;2022-07-29T03:42:54;20.06;59.42
70089;HTU21D;57460;47.134;19.888;2022-07-29T05:54:17;24.50;55.65
70089;HTU21D;57460;47.134;19.888;2022-07-29T06:00:04;24.99;54.25
70089;HTU21D;57460;47.134;19.888;2022-07-29T06:02:53;25.21;52.91
70089;HTU21D;57460;47.134;19.888;2022-07-29T06:05:37;25.42;52.39
70089;HTU21D;57460;47.134;19.888;2022-07-29T06:08:06;25.60;52.23
70089;HTU21D;57460;47.134;19.888;2022-07-29T06:10:34;25.81;51.45
70089;HTU21D;57460;47.134;19.888;2022-07-29T06:13:19;25.99;51.64
70089;HTU21D;57460;47.134;19.888;2022-07-29T06:15:47;26.22;50.69
70089;HTU21D;57460;47.134;19.888;2022-07-29T06:18:15;26.34;50.69
70089;HTU21D;57460;47.134;19.888;2022-07-29T06:20:41;26.49;50.37
70089;HTU21D;57460;47.134;19.888;2022-07-29T06:23:13;26.61;48.97
70089;HTU21D;57460;47.134;19.888;2022-07-29T06:25:48;26.67;48.76
70089;HTU21D;57460;47.134;19.888;2022-07-29T06:28:19;26.73;49.02
70089;HTU21D;57460;47.134;19.888;2022-07-29T06:31:08;26.79;49.18
70089;HTU21D;57460;47.134;19.888;2022-07-29T06:33:52;26.79;49.25
70089;HTU21D;57460;47.134;19.888;2022-07-29T06:39:06;27.08;49.11
70089;HTU21D;57460;47.134;19.888;2022-07-29T06:41:49;27.28;48.08
70089;HTU21D;57460;47.134;19.888;2022-07-29T06:54:05;27.83;47.47
70089;HTU21D;57460;47.134;19.888;2022-07-29T06:56:49;28.06;46.99
70089;HTU21D;57460;47.134;19.888;2022-07-29T06:59:21;28.27;47.25
70089;HTU21D;57460;47.134;19.888;2022-07-29T07:01:52;28.43;46.06
70089;HTU21D;57460;47.134;19.888;2022-07-29T07:04:18;28.56;45.03
70089;HTU21D;57460;47.134;19.888;2022-07-29T07:06:47;28.69;45.95
70089;HTU21D;57460;47.134;19.888;2022-07-29T07:09:20;28.78;45.39
70089;HTU21D;57460;47.134;19.888;2022-07-29T07:11:52;28.90;45.69
70089;HTU21D;57460;47.134;19.888;2022-07-29T07:14:24;29.00;43.92
70089;HTU21D;57460;47.134;19.888;2022-07-29T07:17:10;29.09;44.33
70089;HTU21D;57460;47.134;19.888;2022-07-29T07:19:45;29.22;44.27
70089;HTU21D;57460;47.134;19.888;2022-07-29T07:22:11;29.33;42.92
70089;HTU21D;57460;47.134;19.888;2022-07-29T07:24:43;29.44;44.40
70089;HTU21D;57460;47.134;19.888;2022-07-29T07:27:09;29.61;44.00
70089;HTU21D;57460;47.134;19.888;2022-07-29T07:32:12;29.96;43.74
70089;HTU21D;57460;47.134;19.888;2022-07-29T07:34:39;30.07;43.36
70089;HTU21D;57460;47.134;19.888;2022-07-29T07:37:10;30.15;43.21
70089;HTU21D;57460;47.134;19.888;2022-07-29T07:39:40;30.19;41.96
70089;HTU21D;57460;47.134;19.888;2022-07-29T07:42:06;30.19;41.42
70089;HTU21D;57460;47.134;19.888;2022-07-29T07:44:34;30.22;42.72
70089;HTU21D;57460;47.134;19.888;2022-07-29T07:47:00;30.44;41.46
70089;HTU21D;57460;47.134;19.888;2022-07-29T07:49:26;30.46;39.91
70089;HTU21D;57460;47.134;19.888;2022-07-29T07:52:00;30.44;41.29
70089;HTU21D;57460;47.134;19.888;2022-07-29T07:54:26;30.34;41.20
70089;HTU21D;57460;47.134;19.888;2022-07-29T07:56:52;30.35;43.24
70089;HTU21D;57460;47.134;19.888;2022-07-29T07:59:27;30.47;41.54
70089;HTU21D;57460;47.134;19.888;2022-07-29T08:29:12;31.50;37.80
70089;HTU21D;57460;47.134;19.888;2022-07-29T08:31:53;31.61;38.26
70089;HTU21D;57460;47.134;19.888;2022-07-29T08:40:44;32.11;36.56
70089;HTU21D;57460;47.134;19.888;2022-07-29T08:43:23;32.16;37.13
70089;HTU21D;57460;47.134;19.888;2022-07-29T08:46:09;32.29;35.66
70089;HTU21D;57460;47.134;19.888;2022-07-29T08:48:43;32.34;35.06
70089;HTU21D;57460;47.134;19.888;2022-07-29T08:51:31;32.19;37.45
70089;HTU21D;57460;47.134;19.888;2022-07-29T08:54:26;32.26;36.66
70089;HTU21D;57460;47.134;19.888;2022-07-29T08:57:38;32.22;35.63
70089;HTU21D;57460;47.134;19.888;2022-07-29T09:00:10;32.26;35.05
70089;HTU21D;57460;47.134;19.888;2022-07-29T09:18:44;33.44;32.77
70089;HTU21D;57460;47.134;19.888;2022-07-29T09:21:17;33.89;35.04
70089;HTU21D;57460;47.134;19.888;2022-07-29T09:24:05;34.16;32.41
70089;HTU21D;57460;47.134;19.888;2022-07-29T09:26:47;34.05;30.49
70089;HTU21D;57460;47.134;19.888;2022-07-29T09:29:24;34.11;30.32
70089;HTU21D;57460;47.134;19.888;2022-07-29T09:32:10;34.08;28.90
70089;HTU21D;57460;47.134;19.888;2022-07-29T09:35:18;34.07;31.74
70089;HTU21D;57460;47.134;19.888;2022-07-29T09:37:47;34.30;32.85
70089;HTU21D;57460;47.134;19.888;2022-07-29T09:40:27;34.16;32.30
70089;HTU21D;57460;47.134;19.888;2022-07-29T09:43:13;33.85;31.56
70089;HTU21D;57460;47.134;19.888;2022-07-29T09:45:56;33.85;30.86
70089;HTU21D;57460;47.134;19.888;2022-07-29T09:48:41;33.93;30.02
70089;HTU21D;57460;47.134;19.888;2022-07-29T09:51:21;34.04;31.54
70089;HTU21D;57460;47.134;19.888;2022-07-29T09:53:47;34.44;31.36
70089;HTU21D;57460;47.134;19.888;2022-07-29T10:02:13;34.94;28.39
70089;HTU21D;57460;47.134;19.888;2022-07-29T10:04:46;35.09;29.88
70089;HTU21D;57460;47.134;19.888;2022-07-29T10:13:48;35.51;28.29
70089;HTU21D;57460;47.134;19.888;2022-07-29T10:16:20;35.45;27.95
70089;HTU21D;57460;47.134;19.888;2022-07-29T10:19:02;35.47;25.35
70089;HTU21D;57460;47.134;19.888;2022-07-29T10:21:46;35.25;25.78
70089;HTU21D;57460;47.134;19.888;2022-07-29T10:24:34;35.26;27.94
70089;HTU21D;57460;47.134;19.888;2022-07-29T10:27:05;35.31;27.25
70089;HTU21D;57460;47.134;19.888;2022-07-29T10:29:33;35.40;27.78
70089;HTU21D;57460;47.134;19.888;2022-07-29T10:35:22;35.90;26.62
70089;HTU21D;57460;47.134;19.888;2022-07-29T10:41:36;36.27;24.51
70089;HTU21D;57460;47.134;19.888;2022-07-29T10:44:43;36.01;24.98
70089;HTU21D;57460;47.134;19.888;2022-07-29T10:47:26;36.10;23.43
70089;HTU21D;57460;47.134;19.888;2022-07-29T10:50:03;35.99;23.42
70089;HTU21D;57460;47.134;19.888;2022-07-29T10:52:52;36.17;25.68
70089;HTU21D;57460;47.134;19.888;2022-07-29T10:55:47;36.74;23.11
70089;HTU21D;57460;47.134;19.888;2022-07-29T10:58:25;37.03;23.15
70089;HTU21D;57460;47.134;19.888;2022-07-29T11:00:53;37.15;21.76
70089;HTU21D;57460;47.134;19.888;2022-07-29T11:03:48;36.96;23.75
70089;HTU21D;57460;47.134;19.888;2022-07-29T11:06:15;36.61;23.24
70089;HTU21D;57460;47.134;19.888;2022-07-29T11:08:44;36.21;23.28
70089;HTU21D;57460;47.134;19.888;2022-07-29T11:13:52;36.04;24.42
70089;HTU21D;57460;47.134;19.888;2022-07-29T11:16:22;35.99;23.85
70089;HTU21D;57460;47.134;19.888;2022-07-29T11:21:43;36.45;23.43
70089;HTU21D;57460;47.134;19.888;2022-07-29T11:24:18;36.60;23.17
70089;HTU21D;57460;47.134;19.888;2022-07-29T11:29:32;36.56;23.85
70089;HTU21D;57460;47.134;19.888;2022-07-29T11:32:18;36.31;24.69
70089;HTU21D;57460;47.134;19.888;2022-07-29T11:34:48;36.23;24.74
70089;HTU21D;57460;47.134;19.888;2022-07-29T11:37:17;36.43;23.40
70089;HTU21D;57460;47.134;19.888;2022-07-29T11:45:01;36.42;25.36
70089;HTU21D;57460;47.134;19.888;2022-07-29T11:47:35;36.83;23.59
70089;HTU21D;57460;47.134;19.888;2022-07-29T11:50:14;37.16;24.96
70089;HTU21D;57460;47.134;19.888;2022-07-29T11:52:49;37.52;23.82
70089;HTU21D;57460;47.134;19.888;2022-07-29T11:55:17;37.81;23.39
70089;HTU21D;57460;47.134;19.888;2022-07-29T11:57:50;37.76;23.79
70089;HTU21D;57460;47.134;19.888;2022-07-29T12:00:37;37.85;23.11
70089;HTU21D;57460;47.134;19.888;2022-07-29T12:03:09;37.60;23.58
70089;HTU21D;57460;47.134;19.888;2022-07-29T12:05:46;37.28;24.24
70089;HTU21D;57460;47.134;19.888;2022-07-29T12:08:20;37.11;24.86
70089;HTU21D;57460;47.134;19.888;2022-07-29T12:17:33;37.58;23.05
70089;HTU21D;57460;47.134;19.888;2022-07-29T12:20:07;37.80;24.41
70089;HTU21D;57460;47.134;19.888;2022-07-29T12:29:15;38.06;24.75
70089;HTU21D;57460;47.134;19.888;2022-07-29T12:31:44;38.16;24.37
70089;HTU21D;57460;47.134;19.888;2022-07-29T12:45:05;37.65;24.78
70089;HTU21D;57460;47.134;19.888;2022-07-29T12:47:53;37.65;24.54
70089;HTU21D;57460;47.134;19.888;2022-07-29T12:50:19;37.60;23.90
70089;HTU21D;57460;47.134;19.888;2022-07-29T12:52:51;37.51;24.51
70089;HTU21D;57460;47.134;19.888;2022-07-29T12:55:43;37.58;24.58
70089;HTU21D;57460;47.134;19.888;2022-07-29T13:01:16;37.74;23.32
70089;HTU21D;57460;47.134;19.888;2022-07-29T13:03:48;37.79;23.82
70089;HTU21D;57460;47.134;19.888;2022-07-29T13:06:40;37.99;24.94
70089;HTU21D;57460;47.134;19.888;2022-07-29T13:09:19;38.16;24.39
70089;HTU21D;57460;47.134;19.888;2022-07-29T13:11:47;38.50;24.47
70089;HTU21D;57460;47.134;19.888;2022-07-29T13:14:33;38.64;24.08
70089;HTU21D;57460;47.134;19.888;2022-07-29T13:17:20;38.44;22.61
70089;HTU21D;57460;47.134;19.888;2022-07-29T13:20:06;38.30;24.42
70089;HTU21D;57460;47.134;19.888;2022-07-29T13:22:34;38.44;23.43
70089;HTU21D;57460;47.134;19.888;2022-07-29T13:25:05;38.41;22.96
70089;HTU21D;57460;47.134;19.888;2022-07-29T13:27:36;38.32;22.66
70089;HTU21D;57460;47.134;19.888;2022-07-29T13:30:05;38.16;22.40
70089;HTU21D;57460;47.134;19.888;2022-07-29T13:32:34;37.93;21.76
70089;HTU21D;57460;47.134;19.888;2022-07-29T13:35:07;37.78;23.71
70089;HTU21D;57460;47.134;19.888;2022-07-29T13:37:36;37.95;23.78
70089;HTU21D;57460;47.134;19.888;2022-07-29T13:40:22;38.29;22.70
70089;HTU21D;57460;47.134;19.888;2022-07-29T13:42:48;38.51;22.29
70089;HTU21D;57460;47.134;19.888;2022-07-29T13:45:20;38.64;22.54
70089;HTU21D;57460;47.134;19.888;2022-07-29T13:47:51;38.39;21.94
70089;HTU21D;57460;47.134;19.888;2022-07-29T13:53:20;37.63;22.99
70089;HTU21D;57460;47.134;19.888;2022-07-29T13:55:45;37.40;22.40
70089;HTU21D;57460;47.134;19.888;2022-07-29T14:01:41;37.21;22.98
70089;HTU21D;57460;47.134;19.888;2022-07-29T14:04:08;37.36;23.16
70089;HTU21D;57460;47.134;19.888;2022-07-29T14:06:46;37.44;22.50
70089;HTU21D;57460;47.134;19.888;2022-07-29T14:09:13;37.51;23.77
70089;HTU21D;57460;47.134;19.888;2022-07-29T14:11:40;37.50;22.05
70089;HTU21D;57460;47.134;19.888;2022-07-29T14:14:08;37.54;22.25
70089;HTU21D;57460;47.134;19.888;2022-07-29T14:16:58;37.62;22.39
70089;HTU21D;57460;47.134;19.888;2022-07-29T14:19:45;37.59;22.41
70089;HTU21D;57460;47.134;19.888;2022-07-29T14:22:30;37.12;21.91
70089;HTU21D;57460;47.134;19.888;2022-07-29T14:24:56;36.74;22.32
70089;HTU21D;57460;47.134;19.888;2022-07-29T14:27:22;36.51;24.52
70089;HTU21D;57460;47.134;19.888;2022-07-29T14:29:47;36.49;24.17
70089;HTU21D;57460;47.134;19.888;2022-07-29T14:32:13;36.34;24.42
70089;HTU21D;57460;47.134;19.888;2022-07-29T14:34:40;36.29;23.22
70089;HTU21D;57460;47.134;19.888;2022-07-29T14:37:07;36.28;23.66
70089;HTU21D;57460;47.134;19.888;2022-07-29T14:39:34;36.30;24.27
70089;HTU21D;57460;47.134;19.888;2022-07-29T14:42:01;36.23;23.07
70089;HTU21D;57460;47.134;19.888;2022-07-29T14:44:27;36.07;24.17
70089;HTU21D;57460;47.134;19.888;2022-07-29T14:46:58;36.03;24.12
70089;HTU21D;57460;47.134;19.888;2022-07-29T14:49:25;36.07;24.71
70089;HTU21D;57460;47.134;19.888;2022-07-29T14:51:51;36.08;24.85
70089;HTU21D;57460;47.134;19.888;2022-07-29T14:54:17;36.07;24.02
70089;HTU21D;57460;47.134;19.888;2022-07-29T14:56:43;36.04;24.49
70089;HTU21D;57460;47.134;19.888;2022-07-29T14:59:09;36.27;24.16
70089;HTU21D;57460;47.134;19.888;2022-07-29T15:01:35;36.46;24.31
70089;HTU21D;57460;47.134;19.888;2022-07-29T15:04:01;36.62;23.71
70089;HTU21D;57460;47.134;19.888;2022-07-29T15:06:27;36.48;23.17
70089;HTU21D;57460;47.134;19.888;2022-07-29T15:08:53;36.55;23.23
70089;HTU21D;57460;47.134;19.888;2022-07-29T15:11:19;36.61;23.66
70089;HTU21D;57460;47.134;19.888;2022-07-29T15:13:45;36.74;23.79
70089;HTU21D;57460;47.134;19.888;2022-07-29T15:16:12;36.73;21.82
70089;HTU21D;57460;47.134;19.888;2022-07-29T15:18:38;36.69;22.48
70089;HTU21D;57460;47.134;19.888;2022-07-29T15:21:04;36.69;23.14
70089;HTU21D;57460;47.134;19.888;2022-07-29T15:23:34;36.77;23.11
70089;HTU21D;57460;47.134;19.888;2022-07-29T15:26:02;36.85;21.69
70089;HTU21D;57460;47.134;19.888;2022-07-29T15:28:28;36.82;22.49
70089;HTU21D;57460;47.134;19.888;2022-07-29T15:30:53;36.80;22.86
70089;HTU21D;57460;47.134;19.888;2022-07-29T15:33:19;36.77;21.82
70089;HTU21D;57460;47.134;19.888;2022-07-29T15:35:45;36.61;22.27
70089;HTU21D;57460;47.134;19.888;2022-07-29T15:38:11;36.54;22.91
70089;HTU21D;57460;47.134;19.888;2022-07-29T15:40:38;36.43;22.11
70089;HTU21D;57460;47.134;19.888;2022-07-29T15:43:09;36.25;22.22
70089;HTU21D;57460;47.134;19.888;2022-07-29T15:45:37;36.23;22.82
70089;HTU21D;57460;47.134;19.888;2022-07-29T15:48:05;36.06;23.86
70089;HTU21D;57460;47.134;19.888;2022-07-29T15:50:32;36.01;24.87
70089;HTU21D;57460;47.134;19.888;2022-07-29T15:52:59;35.97;24.94
70089;HTU21D;57460;47.134;19.888;2022-07-29T15:55:25;35.92;24.80
70089;HTU21D;57460;47.134;19.888;2022-07-29T16:26:20;35.58;25.33
70089;HTU21D;57460;47.134;19.888;2022-07-29T19:00:00;30.98;39.97
70089;HTU21D;57460;47.134;19.888;2022-07-29T19:02:26;30.92;40.00
70089;HTU21D;57460;47.134;19.888;2022-07-29T19:04:52;30.79;40.59
70089;HTU21D;57460;47.134;19.888;2022-07-29T19:07:20;30.70;40.50
70089;HTU21D;57460;47.134;19.888;2022-07-29T19:09:50;30.57;41.43
70089;HTU21D;57460;47.134;19.888;2022-07-29T19:12:17;30.42;42.30
70089;HTU21D;57460;47.134;19.888;2022-07-29T19:14:44;30.35;42.32
70089;HTU21D;57460;47.134;19.888;2022-07-29T19:17:13;30.22;43.16
70089;HTU21D;57460;47.134;19.888;2022-07-29T19:19:39;30.18;42.89
70089;HTU21D;57460;47.134;19.888;2022-07-29T19:22:05;30.12;42.95
70089;HTU21D;57460;47.134;19.888;2022-07-29T19:24:31;30.12;42.54
70089;HTU21D;57460;47.134;19.888;2022-07-29T19:26:57;30.04;42.40
70089;HTU21D;57460;47.134;19.888;2022-07-29T19:29:23;29.97;43.46
70089;HTU21D;57460;47.134;19.888;2022-07-29T19:31:51;29.85;43.23
70089;HTU21D;57460;47.134;19.888;2022-07-29T19:34:17;29.77;44.70
70089;HTU21D;57460;47.134;19.888;2022-07-29T19:36:49;29.68;44.60
70089;HTU21D;57460;47.134;19.888;2022-07-29T19:39:14;29.60;45.28
70089;HTU21D;57460;47.134;19.888;2022-07-29T19:41:40;29.50;44.42
70089;HTU21D;57460;47.134;19.888;2022-07-29T19:44:06;29.44;45.01
70089;HTU21D;57460;47.134;19.888;2022-07-29T19:46:32;29.36;44.99
70089;HTU21D;57460;47.134;19.888;2022-07-29T19:48:57;29.30;44.26
70089;HTU21D;57460;47.134;19.888;2022-07-29T19:51:23;29.31;43.80
70089;HTU21D;57460;47.134;19.888;2022-07-29T19:53:49;29.35;44.14
70089;HTU21D;57460;47.134;19.888;2022-07-29T19:56:15;29.39;44.27
70089;HTU21D;57460;47.134;19.888;2022-07-29T19:58:41;29.36;46.21
70089;HTU21D;57460;47.134;19.888;2022-07-29T20:01:08;29.30;45.71
70089;HTU21D;57460;47.134;19.888;2022-07-29T20:03:34;29.19;46.36
70089;HTU21D;57460;47.134;19.888;2022-07-29T20:06:00;29.12;44.67
70089;HTU21D;57460;47.134;19.888;2022-07-29T20:08:26;29.03;45.64
70089;HTU21D;57460;47.134;19.888;2022-07-29T20:10:52;28.89;45.62
70089;HTU21D;57460;47.134;19.888;2022-07-29T20:13:20;28.84;45.77
70089;HTU21D;57460;47.134;19.888;2022-07-29T20:15:46;28.82;47.10
70089;HTU21D;57460;47.134;19.888;2022-07-29T20:18:30;28.75;46.74
70089;HTU21D;57460;47.134;19.888;2022-07-29T20:20:56;28.72;46.40
70089;HTU21D;57460;47.134;19.888;2022-07-29T20:23:24;28.68;46.61
70089;HTU21D;57460;47.134;19.888;2022-07-29T20:25:50;28.61;46.13
70089;HTU21D;57460;47.134;19.888;2022-07-29T20:28:16;28.56;48.61
70089;HTU21D;57460;47.134;19.888;2022-07-29T20:31:00;28.48;47.82
70089;HTU21D;57460;47.134;19.888;2022-07-29T20:33:26;28.42;46.51
70089;HTU21D;57460;47.134;19.888;2022-07-29T20:35:52;28.34;47.02
70089;HTU21D;57460;47.134;19.888;2022-07-29T20:38:21;28.29;48.89
70089;HTU21D;57460;47.134;19.888;2022-07-29T20:40:47;28.26;48.62
70089;HTU21D;57460;47.134;19.888;2022-07-29T20:43:12;28.20;50.07
70089;HTU21D;57460;47.134;19.888;2022-07-29T20:45:38;28.13;48.18
70089;HTU21D;57460;47.134;19.888;2022-07-29T20:48:04;28.12;47.03
70089;HTU21D;57460;47.134;19.888;2022-07-29T20:50:31;28.17;47.54
70089;HTU21D;57460;47.134;19.888;2022-07-29T20:52:57;28.23;45.87
70089;HTU21D;57460;47.134;19.888;2022-07-29T20:55:22;28.26;46.92
70089;HTU21D;57460;47.134;19.888;2022-07-29T20:57:48;28.31;46.05
70089;HTU21D;57460;47.134;19.888;2022-07-29T21:00:14;28.33;47.51
70089;HTU21D;57460;47.134;19.888;2022-07-29T21:02:40;28.32;48.57
70089;HTU21D;57460;47.134;19.888;2022-07-29T21:05:06;28.29;48.49
70089;HTU21D;57460;47.134;19.888;2022-07-29T21:07:32;28.24;46.24
70089;HTU21D;57460;47.134;19.888;2022-07-29T21:09:57;28.17;45.00
70089;HTU21D;57460;47.134;19.888;2022-07-29T21:12:23;28.09;49.96
70089;HTU21D;57460;47.134;19.888;2022-07-29T21:14:54;27.97;47.46
70089;HTU21D;57460;47.134;19.888;2022-07-29T21:17:20;27.76;49.18
70089;HTU21D;57460;47.134;19.888;2022-07-29T21:19:46;27.70;47.91
70089;HTU21D;57460;47.134;19.888;2022-07-29T21:22:12;27.65;48.91
70089;HTU21D;57460;47.134;19.888;2022-07-29T21:24:38;27.41;50.10
70089;HTU21D;57460;47.134;19.888;2022-07-29T21:27:04;27.21;49.49
70089;HTU21D;57460;47.134;19.888;2022-07-29T21:29:48;27.07;51.61
70089;HTU21D;57460;47.134;19.888;2022-07-29T21:32:14;26.97;50.45
70089;HTU21D;57460;47.134;19.888;2022-07-29T21:34:40;26.80;53.76
70089;HTU21D;57460;47.134;19.888;2022-07-29T21:37:06;26.67;51.66
70089;HTU21D;57460;47.134;19.888;2022-07-29T21:39:32;26.48;54.83
70089;HTU21D;57460;47.134;19.888;2022-07-29T21:41:57;26.25;55.13
70089;HTU21D;57460;47.134;19.888;2022-07-29T21:44:23;26.20;53.45
70089;HTU21D;57460;47.134;19.888;2022-07-29T21:46:49;26.21;53.20
70089;HTU21D;57460;47.134;19.888;2022-07-29T21:49:15;26.25;56.72
70089;HTU21D;57460;47.134;19.888;2022-07-29T21:51:41;26.20;54.97
70089;HTU21D;57460;47.134;19.888;2022-07-29T21:54:06;26.26;52.13
70089;HTU21D;57460;47.134;19.888;2022-07-29T21:56:32;26.32;51.72
70089;HTU21D;57460;47.134;19.888;2022-07-29T21:58:58;26.36;51.77
70089;HTU21D;57460;47.134;19.888;2022-07-29T22:01:24;26.41;50.34
70089;HTU21D;57460;47.134;19.888;2022-07-29T22:03:49;26.40;52.14
70089;HTU21D;57460;47.134;19.888;2022-07-29T22:06:15;26.39;51.84
70089;HTU21D;57460;47.134;19.888;2022-07-29T22:08:41;26.38;51.79
70089;HTU21D;57460;47.134;19.888;2022-07-29T22:11:10;26.37;53.50
70089;HTU21D;57460;47.134;19.888;2022-07-29T22:13:36;26.38;50.04
70089;HTU21D;57460;47.134;19.888;2022-07-29T22:16:01;26.36;51.01
70089;HTU21D;57460;47.134;19.888;2022-07-29T22:18:27;26.32;50.60
70089;HTU21D;57460;47.134;19.888;2022-07-29T22:20:53;26.23;52.60
70089;HTU21D;57460;47.134;19.888;2022-07-29T22:23:19;26.17;52.95
70089;HTU21D;57460;47.134;19.888;2022-07-29T22:25:44;26.08;52.21
70089;HTU21D;57460;47.134;19.888;2022-07-29T22:28:10;25.98;54.01
70089;HTU21D;57460;47.134;19.888;2022-07-29T22:30:36;25.88;53.41
70089;HTU21D;57460;47.134;19.888;2022-07-29T22:33:02;25.82;52.40
70089;HTU21D;57460;47.134;19.888;2022-07-29T22:35:28;25.78;52.40
70089;HTU21D;57460;47.134;19.888;2022-07-29T22:37:53;25.77;50.98
70089;HTU21D;57460;47.134;19.888;2022-07-29T22:40:19;25.71;51.95
70089;HTU21D;57460;47.134;19.888;2022-07-29T22:42:45;25.61;56.63
70089;HTU21D;57460;47.134;19.888;2022-07-29T22:45:10;25.57;52.43
70089;HTU21D;57460;47.134;19.888;2022-07-29T22:47:37;25.46;53.94
70089;HTU21D;57460;47.134;19.888;2022-07-29T22:50:03;25.46;53.31
70089;HTU21D;57460;47.134;19.888;2022-07-29T22:52:29;25.45;54.16
70089;HTU21D;57460;47.134;19.888;2022-07-29T22:54:55;25.43;54.08
70089;HTU21D;57460;47.134;19.888;2022-07-29T22:57:21;25.37;53.66
70089;HTU21D;57460;47.134;19.888;2022-07-29T22:59:46;25.28;53.58
70089;HTU21D;57460;47.134;19.888;2022-07-29T23:02:12;25.17;55.06
70089;HTU21D;57460;47.134;19.888;2022-07-29T23:43:16;25.09;58.29
70089;HTU21D;57460;47.134;19.888;2022-07-29T23:45:42;25.17;58.02
70089;HTU21D;57460;47.134;19.888;2022-07-29T23:48:08;25.21;57.77
70089;HTU21D;57460;47.134;19.888;2022-07-29T23:50:33;25.24;55.82
70089;HTU21D;57460;47.134;19.888;2022-07-29T23:52:59;25.29;56.80
70089;HTU21D;57460;47.134;19.888;2022-07-29T23:55:25;25.33;55.04
70089;HTU21D;57460;47.134;19.888;2022-07-29T23:57:50;25.40;55.28
